sensor_id;sensor_type;location;lat;lon;timestamp;pressure;altitude;pressure_sealevel;temperature;humidity
12795;BME280;6461;42.666;23.296;2022-08-01T00:02:10;94591.84;;;20.57;72.27
12795;BME280;6461;42.666;23.296;2022-08-01T00:04:38;94589.72;;;20.66;71.42
12795;BME280;6461;42.666;23.296;2022-08-01T00:07:05;94593.53;;;20.65;71.06
12795;BME280;6461;42.666;23.296;2022-08-01T00:09:31;94588.19;;;20.65;70.88
12795;BME280;6461;42.666;23.296;2022-08-01T00:11:58;94589.81;;;20.70;69.94
12795;BME280;6461;42.666;23.296;2022-08-01T00:14:24;94594.84;;;20.75;68.57
12795;BME280;6461;42.666;23.296;2022-08-01T00:16:51;94585.31;;;20.74;68.72
12795;BME280;6461;42.666;23.296;2022-08-01T00:19:18;94590.09;;;20.64;67.49
12795;BME280;6461;42.666;23.296;2022-08-01T00:21:46;94588.69;;;20.71;66.78
12795;BME280;6461;42.666;23.296;2022-08-01T00:24:12;94584.97;;;20.75;66.61
12795;BME280;6461;42.666;23.296;2022-08-01T00:26:39;94594.03;;;20.71;66.46
12795;BME280;6461;42.666;23.296;2022-08-01T00:29:05;94591.91;;;20.60;68.21
12795;BME280;6461;42.666;23.296;2022-08-01T00:31:32;94584.34;;;20.43;68.99
12795;BME280;6461;42.666;23.296;2022-08-01T00:33:58;94592.75;;;20.45;69.17
12795;BME280;6461;42.666;23.296;2022-08-01T00:36:25;94591.19;;;20.44;69.59
12795;BME280;6461;42.666;23.296;2022-08-01T00:38:53;94581.09;;;20.34;70.84
12795;BME280;6461;42.666;23.296;2022-08-01T00:41:20;94585.94;;;20.48;70.26
12795;BME280;6461;42.666;23.296;2022-08-01T00:43:46;94587.88;;;20.32;70.62
12795;BME280;6461;42.666;23.296;2022-08-01T00:46:13;94595.41;;;20.26;71.47
12795;BME280;6461;42.666;23.296;2022-08-01T00:48:40;94588.66;;;20.17;74.18
12795;BME280;6461;42.666;23.296;2022-08-01T00:51:06;94585.44;;;20.08;78.33
12795;BME280;6461;42.666;23.296;2022-08-01T00:53:33;94591.94;;;20.10;79.82
12795;BME280;6461;42.666;23.296;2022-08-01T00:56:02;94588.59;;;20.13;80.46
12795;BME280;6461;42.666;23.296;2022-08-01T00:58:28;94587.00;;;19.93;78.79
12795;BME280;6461;42.666;23.296;2022-08-01T01:00:57;94577.13;;;19.78;79.99
12795;BME280;6461;42.666;23.296;2022-08-01T01:03:24;94586.16;;;19.89;80.14
12795;BME280;6461;42.666;23.296;2022-08-01T01:08:35;94568.56;;;19.69;80.31
12795;BME280;6461;42.666;23.296;2022-08-01T01:11:06;94564.34;;;19.52;82.90
12795;BME280;6461;42.666;23.296;2022-08-01T01:13:38;94560.94;;;19.52;83.93
12795;BME280;6461;42.666;23.296;2022-08-01T01:16:09;94568.59;;;19.53;82.82
12795;BME280;6461;42.666;23.296;2022-08-01T01:18:37;94565.31;;;19.44;81.36
12795;BME280;6461;42.666;23.296;2022-08-01T01:21:07;94558.78;;;19.42;80.34
12795;BME280;6461;42.666;23.296;2022-08-01T01:23:44;94559.97;;;19.44;79.41
12795;BME280;6461;42.666;23.296;2022-08-01T01:26:22;94559.13;;;19.40;79.20
12795;BME280;6461;42.666;23.296;2022-08-01T01:29:02;94558.84;;;19.30;77.07
12795;BME280;6461;42.666;23.296;2022-08-01T01:31:31;94551.75;;;19.49;74.50
12795;BME280;6461;42.666;23.296;2022-08-01T01:33:59;94552.34;;;19.43;73.41
12795;BME280;6461;42.666;23.296;2022-08-01T01:36:26;94548.72;;;19.51;72.68
12795;BME280;6461;42.666;23.296;2022-08-01T01:38:53;94546.84;;;19.51;71.68
12795;BME280;6461;42.666;23.296;2022-08-01T01:41:20;94543.84;;;19.53;70.42
12795;BME280;6461;42.666;23.296;2022-08-01T01:43:47;94542.47;;;19.43;69.38
12795;BME280;6461;42.666;23.296;2022-08-01T01:46:16;94540.50;;;19.56;69.65
12795;BME280;6461;42.666;23.296;2022-08-01T01:48:47;94527.44;;;19.51;64.64
12795;BME280;6461;42.666;23.296;2022-08-01T01:51:14;94532.69;;;19.47;63.50
12795;BME280;6461;42.666;23.296;2022-08-01T01:53:41;94537.81;;;19.56;63.05
12795;BME280;6461;42.666;23.296;2022-08-01T01:56:09;94534.81;;;19.57;60.62
12795;BME280;6461;42.666;23.296;2022-08-01T01:58:36;94531.72;;;19.55;57.79
12795;BME280;6461;42.666;23.296;2022-08-01T02:01:04;94533.44;;;19.63;56.29
12795;BME280;6461;42.666;23.296;2022-08-01T02:03:35;94531.78;;;19.74;55.12
12795;BME280;6461;42.666;23.296;2022-08-01T02:06:02;94537.16;;;19.78;53.29
12795;BME280;6461;42.666;23.296;2022-08-01T02:08:30;94534.00;;;19.88;52.33
12795;BME280;6461;42.666;23.296;2022-08-01T02:10:58;94528.53;;;20.00;51.44
12795;BME280;6461;42.666;23.296;2022-08-01T02:13:42;94525.19;;;20.03;50.89
12795;BME280;6461;42.666;23.296;2022-08-01T02:16:09;94518.03;;;20.07;50.21
12795;BME280;6461;42.666;23.296;2022-08-01T02:18:38;94523.16;;;20.16;50.61
12795;BME280;6461;42.666;23.296;2022-08-01T02:21:05;94522.03;;;20.17;51.67
12795;BME280;6461;42.666;23.296;2022-08-01T02:23:35;94516.38;;;20.18;51.31
12795;BME280;6461;42.666;23.296;2022-08-01T02:26:03;94517.56;;;20.21;52.08
12795;BME280;6461;42.666;23.296;2022-08-01T02:28:35;94519.03;;;20.18;53.79
12795;BME280;6461;42.666;23.296;2022-08-01T02:31:02;94517.94;;;20.04;53.14
12795;BME280;6461;42.666;23.296;2022-08-01T02:33:36;94523.28;;;20.04;56.10
12795;BME280;6461;42.666;23.296;2022-08-01T02:36:05;94515.00;;;19.89;55.90
12795;BME280;6461;42.666;23.296;2022-08-01T02:38:40;94522.91;;;19.86;55.50
12795;BME280;6461;42.666;23.296;2022-08-01T02:41:09;94519.03;;;19.83;54.23
12795;BME280;6461;42.666;23.296;2022-08-01T02:43:36;94523.78;;;19.74;54.94
12795;BME280;6461;42.666;23.296;2022-08-01T02:46:04;94522.88;;;19.67;54.69
12795;BME280;6461;42.666;23.296;2022-08-01T02:48:31;94514.38;;;19.46;56.05
12795;BME280;6461;42.666;23.296;2022-08-01T02:51:00;94512.25;;;19.36;56.77
12795;BME280;6461;42.666;23.296;2022-08-01T02:53:30;94511.97;;;19.25;57.62
12795;BME280;6461;42.666;23.296;2022-08-01T02:55:57;94510.31;;;19.21;57.54
12795;BME280;6461;42.666;23.296;2022-08-01T02:58:25;94511.47;;;19.20;57.05
12795;BME280;6461;42.666;23.296;2022-08-01T03:00:52;94509.81;;;19.15;57.53
12795;BME280;6461;42.666;23.296;2022-08-01T03:03:19;94516.06;;;19.23;57.90
12795;BME280;6461;42.666;23.296;2022-08-01T03:05:46;94511.53;;;19.23;58.97
12795;BME280;6461;42.666;23.296;2022-08-01T03:08:13;94509.53;;;19.20;58.67
12795;BME280;6461;42.666;23.296;2022-08-01T03:10:44;94509.03;;;19.14;59.78
12795;BME280;6461;42.666;23.296;2022-08-01T03:13:12;94515.75;;;19.08;58.66
12795;BME280;6461;42.666;23.296;2022-08-01T03:15:40;94517.69;;;19.11;58.37
12795;BME280;6461;42.666;23.296;2022-08-01T03:18:08;94516.66;;;19.16;59.92
12795;BME280;6461;42.666;23.296;2022-08-01T03:20:35;94512.28;;;19.08;59.71
12795;BME280;6461;42.666;23.296;2022-08-01T03:23:03;94523.44;;;19.13;64.36
12795;BME280;6461;42.666;23.296;2022-08-01T03:25:30;94517.94;;;19.22;63.91
12795;BME280;6461;42.666;23.296;2022-08-01T03:27:59;94527.31;;;19.00;64.17
12795;BME280;6461;42.666;23.296;2022-08-01T03:30:27;94520.69;;;18.79;61.71
12795;BME280;6461;42.666;23.296;2022-08-01T03:32:56;94522.13;;;18.92;61.47
12795;BME280;6461;42.666;23.296;2022-08-01T03:35:23;94535.28;;;18.85;62.47
12795;BME280;6461;42.666;23.296;2022-08-01T03:37:53;94524.22;;;18.83;67.58
12795;BME280;6461;42.666;23.296;2022-08-01T03:40:22;94529.69;;;18.90;65.52
12795;BME280;6461;42.666;23.296;2022-08-01T03:42:50;94527.03;;;18.90;65.76
12795;BME280;6461;42.666;23.296;2022-08-01T03:45:22;94522.06;;;18.88;67.52
12795;BME280;6461;42.666;23.296;2022-08-01T03:47:50;94523.59;;;18.74;63.54
12795;BME280;6461;42.666;23.296;2022-08-01T03:50:19;94522.66;;;18.82;63.19
12795;BME280;6461;42.666;23.296;2022-08-01T03:52:48;94518.03;;;18.79;62.70
12795;BME280;6461;42.666;23.296;2022-08-01T03:55:16;94518.88;;;18.83;61.33
12795;BME280;6461;42.666;23.296;2022-08-01T03:57:43;94522.59;;;18.94;62.52
12795;BME280;6461;42.666;23.296;2022-08-01T04:00:11;94519.25;;;18.97;61.69
12795;BME280;6461;42.666;23.296;2022-08-01T04:02:39;94527.31;;;19.00;61.59
12795;BME280;6461;42.666;23.296;2022-08-01T04:05:07;94517.69;;;19.11;60.91
12795;BME280;6461;42.666;23.296;2022-08-01T04:07:33;94522.50;;;19.06;60.68
12795;BME280;6461;42.666;23.296;2022-08-01T04:10:01;94523.19;;;19.03;61.23
12795;BME280;6461;42.666;23.296;2022-08-01T04:12:28;94532.75;;;19.20;61.14
12795;BME280;6461;42.666;23.296;2022-08-01T04:14:55;94526.91;;;19.30;60.81
12795;BME280;6461;42.666;23.296;2022-08-01T04:17:22;94527.25;;;19.44;62.29
12795;BME280;6461;42.666;23.296;2022-08-01T04:19:50;94520.56;;;19.50;68.33
12795;BME280;6461;42.666;23.296;2022-08-01T04:22:17;94529.84;;;19.56;71.35
12795;BME280;6461;42.666;23.296;2022-08-01T04:24:44;94527.00;;;19.64;72.97
12795;BME280;6461;42.666;23.296;2022-08-01T04:27:17;94534.63;;;19.66;74.23
12795;BME280;6461;42.666;23.296;2022-08-01T04:29:45;94535.25;;;19.59;74.37
12795;BME280;6461;42.666;23.296;2022-08-01T04:32:12;94530.16;;;19.54;76.06
12795;BME280;6461;42.666;23.296;2022-08-01T04:34:40;94525.44;;;19.63;75.79
12795;BME280;6461;42.666;23.296;2022-08-01T04:37:09;94531.38;;;19.57;72.15
12795;BME280;6461;42.666;23.296;2022-08-01T04:39:37;94535.84;;;19.53;72.88
12795;BME280;6461;42.666;23.296;2022-08-01T04:42:08;94530.69;;;19.60;70.06
12795;BME280;6461;42.666;23.296;2022-08-01T04:44:36;94534.38;;;19.71;70.51
12795;BME280;6461;42.666;23.296;2022-08-01T04:47:03;94534.25;;;19.83;70.51
12795;BME280;6461;42.666;23.296;2022-08-01T04:49:30;94529.16;;;19.94;73.40
12795;BME280;6461;42.666;23.296;2022-08-01T04:51:57;94530.09;;;20.01;75.30
12795;BME280;6461;42.666;23.296;2022-08-01T04:54:26;94533.88;;;20.00;77.31
12795;BME280;6461;42.666;23.296;2022-08-01T04:56:54;94539.47;;;19.95;78.95
12795;BME280;6461;42.666;23.296;2022-08-01T04:59:24;94528.38;;;19.93;78.67
12795;BME280;6461;42.666;23.296;2022-08-01T05:02:07;94532.34;;;19.99;78.56
12795;BME280;6461;42.666;23.296;2022-08-01T05:04:34;94534.84;;;19.92;76.78
12795;BME280;6461;42.666;23.296;2022-08-01T05:07:00;94532.34;;;19.99;76.15
12795;BME280;6461;42.666;23.296;2022-08-01T05:09:29;94531.34;;;19.88;73.17
12795;BME280;6461;42.666;23.296;2022-08-01T05:11:55;94526.28;;;20.02;74.72
12795;BME280;6461;42.666;23.296;2022-08-01T05:14:23;94520.91;;;19.99;76.59
12795;BME280;6461;42.666;23.296;2022-08-01T05:16:50;94519.75;;;20.00;76.89
12795;BME280;6461;42.666;23.296;2022-08-01T05:19:17;94531.78;;;20.09;76.85
12795;BME280;6461;42.666;23.296;2022-08-01T05:21:44;94533.28;;;20.26;75.39
12795;BME280;6461;42.666;23.296;2022-08-01T05:24:10;94537.31;;;20.35;74.59
12795;BME280;6461;42.666;23.296;2022-08-01T05:26:39;94528.31;;;20.43;75.28
12795;BME280;6461;42.666;23.296;2022-08-01T05:29:06;94521.59;;;20.49;74.36
12795;BME280;6461;42.666;23.296;2022-08-01T05:31:32;94524.09;;;20.42;74.71
12795;BME280;6461;42.666;23.296;2022-08-01T05:34:00;94524.97;;;20.46;76.12
12795;BME280;6461;42.666;23.296;2022-08-01T05:36:26;94522.28;;;20.66;76.74
12795;BME280;6461;42.666;23.296;2022-08-01T05:38:53;94519.59;;;20.85;74.81
12795;BME280;6461;42.666;23.296;2022-08-01T05:41:20;94526.53;;;20.89;69.91
12795;BME280;6461;42.666;23.296;2022-08-01T05:43:48;94531.50;;;20.91;61.87
12795;BME280;6461;42.666;23.296;2022-08-01T05:46:14;94529.94;;;21.09;59.84
12795;BME280;6461;42.666;23.296;2022-08-01T05:48:41;94533.38;;;21.09;55.99
12795;BME280;6461;42.666;23.296;2022-08-01T05:51:08;94527.53;;;21.23;55.60
12795;BME280;6461;42.666;23.296;2022-08-01T05:53:34;94532.69;;;21.35;55.19
12795;BME280;6461;42.666;23.296;2022-08-01T05:56:01;94531.00;;;21.50;53.60
12795;BME280;6461;42.666;23.296;2022-08-01T05:58:28;94531.13;;;21.57;53.18
12795;BME280;6461;42.666;23.296;2022-08-01T06:00:56;94531.94;;;21.61;53.06
12795;BME280;6461;42.666;23.296;2022-08-01T06:03:22;94536.69;;;21.71;53.33
12795;BME280;6461;42.666;23.296;2022-08-01T06:05:49;94533.13;;;21.86;53.94
12795;BME280;6461;42.666;23.296;2022-08-01T06:08:17;94537.47;;;21.97;52.48
12795;BME280;6461;42.666;23.296;2022-08-01T06:10:43;94538.25;;;21.98;51.78
12795;BME280;6461;42.666;23.296;2022-08-01T06:13:10;94537.59;;;22.04;50.73
12795;BME280;6461;42.666;23.296;2022-08-01T06:15:37;94542.72;;;22.17;50.14
12795;BME280;6461;42.666;23.296;2022-08-01T06:18:05;94543.53;;;22.21;50.33
12795;BME280;6461;42.666;23.296;2022-08-01T06:20:32;94545.06;;;22.22;49.04
12795;BME280;6461;42.666;23.296;2022-08-01T06:22:58;94540.25;;;22.31;50.17
12795;BME280;6461;42.666;23.296;2022-08-01T06:25:25;94529.78;;;22.52;49.78
12795;BME280;6461;42.666;23.296;2022-08-01T06:27:51;94543.28;;;22.59;49.33
12795;BME280;6461;42.666;23.296;2022-08-01T06:30:18;94554.56;;;22.75;49.68
12795;BME280;6461;42.666;23.296;2022-08-01T06:32:45;94548.53;;;22.85;48.62
12795;BME280;6461;42.666;23.296;2022-08-01T06:35:14;94536.31;;;22.84;48.48
12795;BME280;6461;42.666;23.296;2022-08-01T06:37:41;94543.88;;;22.78;48.65
12795;BME280;6461;42.666;23.296;2022-08-01T06:40:08;94549.22;;;22.78;48.66
12795;BME280;6461;42.666;23.296;2022-08-01T06:42:35;94534.72;;;22.79;48.88
12795;BME280;6461;42.666;23.296;2022-08-01T06:45:02;94539.47;;;22.93;48.46
12795;BME280;6461;42.666;23.296;2022-08-01T06:47:29;94529.34;;;22.76;48.25
12795;BME280;6461;42.666;23.296;2022-08-01T06:49:55;94526.88;;;22.60;48.85
12795;BME280;6461;42.666;23.296;2022-08-01T06:52:24;94530.56;;;22.85;49.32
12795;BME280;6461;42.666;23.296;2022-08-01T06:54:50;94519.94;;;22.93;48.99
12795;BME280;6461;42.666;23.296;2022-08-01T06:57:17;94523.59;;;23.14;49.58
12795;BME280;6461;42.666;23.296;2022-08-01T06:59:43;94522.22;;;23.31;48.19
12795;BME280;6461;42.666;23.296;2022-08-01T07:02:10;94500.53;;;23.43;48.36
12795;BME280;6461;42.666;23.296;2022-08-01T07:04:37;94520.13;;;23.50;48.21
12795;BME280;6461;42.666;23.296;2022-08-01T07:07:03;94517.09;;;23.55;47.86
12795;BME280;6461;42.666;23.296;2022-08-01T07:09:31;94514.19;;;23.31;47.88
12795;BME280;6461;42.666;23.296;2022-08-01T07:11:58;94512.47;;;23.52;48.50
12795;BME280;6461;42.666;23.296;2022-08-01T07:14:25;94513.16;;;23.42;48.67
12795;BME280;6461;42.666;23.296;2022-08-01T07:16:51;94525.19;;;23.62;49.09
12795;BME280;6461;42.666;23.296;2022-08-01T07:19:18;94520.75;;;23.84;48.80
12795;BME280;6461;42.666;23.296;2022-08-01T07:21:45;94515.03;;;23.89;48.93
12795;BME280;6461;42.666;23.296;2022-08-01T07:24:12;94519.78;;;24.10;48.23
12795;BME280;6461;42.666;23.296;2022-08-01T07:26:40;94542.00;;;24.10;47.89
12795;BME280;6461;42.666;23.296;2022-08-01T07:29:07;94527.81;;;24.10;47.07
12795;BME280;6461;42.666;23.296;2022-08-01T07:31:34;94516.41;;;24.27;47.21
12795;BME280;6461;42.666;23.296;2022-08-01T07:34:00;94515.72;;;24.37;45.82
12795;BME280;6461;42.666;23.296;2022-08-01T07:36:27;94515.34;;;24.42;45.73
12795;BME280;6461;42.666;23.296;2022-08-01T07:38:54;94514.97;;;24.44;45.50
12795;BME280;6461;42.666;23.296;2022-08-01T07:41:21;94511.16;;;24.48;45.43
12795;BME280;6461;42.666;23.296;2022-08-01T07:43:49;94513.72;;;24.27;44.85
12795;BME280;6461;42.666;23.296;2022-08-01T07:46:16;94521.72;;;24.13;46.10
12795;BME280;6461;42.666;23.296;2022-08-01T07:48:42;94515.72;;;24.37;45.93
12795;BME280;6461;42.666;23.296;2022-08-01T07:51:09;94518.09;;;24.60;44.87
12795;BME280;6461;42.666;23.296;2022-08-01T07:53:37;94521.69;;;24.88;44.24
12795;BME280;6461;42.666;23.296;2022-08-01T07:56:04;94530.56;;;25.35;43.15
12795;BME280;6461;42.666;23.296;2022-08-01T07:58:31;94524.88;;;25.68;43.04
12795;BME280;6461;42.666;23.296;2022-08-01T08:00:59;94531.78;;;25.62;41.25
12795;BME280;6461;42.666;23.296;2022-08-01T08:03:26;94528.31;;;25.65;41.29
12795;BME280;6461;42.666;23.296;2022-08-01T08:05:53;94534.06;;;25.77;41.65
12795;BME280;6461;42.666;23.296;2022-08-01T08:08:19;94527.91;;;25.84;40.77
12795;BME280;6461;42.666;23.296;2022-08-01T08:10:46;94514.09;;;25.85;40.83
12795;BME280;6461;42.666;23.296;2022-08-01T08:13:13;94527.16;;;25.69;41.67
12795;BME280;6461;42.666;23.296;2022-08-01T08:15:39;94524.06;;;25.81;42.44
12795;BME280;6461;42.666;23.296;2022-08-01T08:18:07;94522.53;;;25.91;41.88
12795;BME280;6461;42.666;23.296;2022-08-01T08:20:34;94521.34;;;25.99;41.52
12795;BME280;6461;42.666;23.296;2022-08-01T08:23:00;94517.53;;;26.18;40.73
12795;BME280;6461;42.666;23.296;2022-08-01T08:25:47;94512.53;;;26.09;40.15
12795;BME280;6461;42.666;23.296;2022-08-01T08:28:13;94525.22;;;25.80;40.30
12795;BME280;6461;42.666;23.296;2022-08-01T08:30:40;94520.19;;;25.97;40.33
12795;BME280;6461;42.666;23.296;2022-08-01T08:33:08;94513.28;;;25.92;40.72
12795;BME280;6461;42.666;23.296;2022-08-01T08:35:35;94517.13;;;26.19;40.37
12795;BME280;6461;42.666;23.296;2022-08-01T08:38:01;94513.28;;;26.17;39.86
12795;BME280;6461;42.666;23.296;2022-08-01T08:40:30;94517.50;;;26.21;40.77
12795;BME280;6461;42.666;23.296;2022-08-01T08:42:56;94524.41;;;26.22;38.99
12795;BME280;6461;42.666;23.296;2022-08-01T08:45:24;94523.28;;;26.16;39.46
12795;BME280;6461;42.666;23.296;2022-08-01T08:47:51;94514.00;;;26.31;39.34
12795;BME280;6461;42.666;23.296;2022-08-01T08:50:19;94503.56;;;26.51;39.37
12795;BME280;6461;42.666;23.296;2022-08-01T08:52:46;94511.97;;;26.67;37.65
12795;BME280;6461;42.666;23.296;2022-08-01T08:55:15;94514.25;;;26.69;37.09
12795;BME280;6461;42.666;23.296;2022-08-01T08:57:42;94514.56;;;26.92;37.50
12795;BME280;6461;42.666;23.296;2022-08-01T09:00:10;94514.22;;;26.83;37.23
12795;BME280;6461;42.666;23.296;2022-08-01T09:02:39;94513.84;;;26.81;36.01
12795;BME280;6461;42.666;23.296;2022-08-01T09:05:07;94516.75;;;27.11;34.58
12795;BME280;6461;42.666;23.296;2022-08-01T09:07:35;94524.75;;;27.21;35.19
12795;BME280;6461;42.666;23.296;2022-08-01T09:10:02;94523.63;;;27.22;35.25
12795;BME280;6461;42.666;23.296;2022-08-01T09:12:29;94515.81;;;27.39;34.80
12795;BME280;6461;42.666;23.296;2022-08-01T09:14:55;94498.78;;;27.52;35.31
12795;BME280;6461;42.666;23.296;2022-08-01T09:17:22;94501.38;;;27.63;34.60
12795;BME280;6461;42.666;23.296;2022-08-01T09:19:50;94502.56;;;28.06;34.94
12795;BME280;6461;42.666;23.296;2022-08-01T09:22:18;94508.38;;;28.01;35.03
12795;BME280;6461;42.666;23.296;2022-08-01T09:25:00;94504.75;;;27.74;34.94
12795;BME280;6461;42.666;23.296;2022-08-01T09:27:27;94506.19;;;27.85;33.68
12795;BME280;6461;42.666;23.296;2022-08-01T09:29:54;94501.41;;;28.03;33.93
12795;BME280;6461;42.666;23.296;2022-08-01T09:32:32;94487.25;;;28.30;33.64
12795;BME280;6461;42.666;23.296;2022-08-01T09:35:00;94491.09;;;28.32;34.29
12795;BME280;6461;42.666;23.296;2022-08-01T09:37:47;94494.59;;;28.29;34.50
12795;BME280;6461;42.666;23.296;2022-08-01T09:40:15;94494.44;;;28.43;34.77
12795;BME280;6461;42.666;23.296;2022-08-01T09:42:42;94503.75;;;28.72;34.12
12795;BME280;6461;42.666;23.296;2022-08-01T09:45:09;94487.19;;;28.70;33.86
12795;BME280;6461;42.666;23.296;2022-08-01T09:47:38;94485.84;;;28.82;33.82
12795;BME280;6461;42.666;23.296;2022-08-01T09:50:05;94487.06;;;29.08;33.54
12795;BME280;6461;42.666;23.296;2022-08-01T09:52:32;94490.97;;;29.33;33.89
12795;BME280;6461;42.666;23.296;2022-08-01T09:55:00;94491.03;;;29.53;33.65
12795;BME280;6461;42.666;23.296;2022-08-01T09:57:28;94498.78;;;29.51;33.80
12795;BME280;6461;42.666;23.296;2022-08-01T09:59:55;94484.00;;;29.32;35.19
12795;BME280;6461;42.666;23.296;2022-08-01T10:02:26;94487.69;;;29.69;34.47
12795;BME280;6461;42.666;23.296;2022-08-01T10:04:53;94492.28;;;29.72;33.46
12795;BME280;6461;42.666;23.296;2022-08-01T10:07:20;94494.31;;;29.64;32.74
12795;BME280;6461;42.666;23.296;2022-08-01T10:09:47;94489.75;;;29.61;32.70
12795;BME280;6461;42.666;23.296;2022-08-01T10:12:15;94491.09;;;29.49;33.08
12795;BME280;6461;42.666;23.296;2022-08-01T10:14:43;94476.78;;;29.76;33.01
12795;BME280;6461;42.666;23.296;2022-08-01T10:17:11;94484.03;;;30.02;32.42
12795;BME280;6461;42.666;23.296;2022-08-01T10:19:38;94471.06;;;29.93;32.22
12795;BME280;6461;42.666;23.296;2022-08-01T10:22:07;94471.09;;;30.13;31.91
12795;BME280;6461;42.666;23.296;2022-08-01T10:24:36;94483.22;;;30.24;31.90
12795;BME280;6461;42.666;23.296;2022-08-01T10:27:05;94477.94;;;30.17;31.00
12795;BME280;6461;42.666;23.296;2022-08-01T10:29:35;94476.75;;;29.99;31.58
12795;BME280;6461;42.666;23.296;2022-08-01T10:32:05;94483.19;;;30.28;31.13
12795;BME280;6461;42.666;23.296;2022-08-01T10:34:34;94468.50;;;29.59;31.34
12795;BME280;6461;42.666;23.296;2022-08-01T10:37:01;94465.22;;;29.48;32.68
12795;BME280;6461;42.666;23.296;2022-08-01T10:39:28;94478.16;;;29.61;32.85
12795;BME280;6461;42.666;23.296;2022-08-01T10:41:55;94468.66;;;29.76;32.60
12795;BME280;6461;42.666;23.296;2022-08-01T10:44:22;94468.78;;;30.11;32.24
12795;BME280;6461;42.666;23.296;2022-08-01T10:46:49;94472.97;;;30.55;31.78
12795;BME280;6461;42.666;23.296;2022-08-01T10:49:19;94463.09;;;30.65;31.36
12795;BME280;6461;42.666;23.296;2022-08-01T10:51:47;94463.94;;;30.42;30.98
12795;BME280;6461;42.666;23.296;2022-08-01T10:54:13;94472.88;;;30.78;30.42
12795;BME280;6461;42.666;23.296;2022-08-01T10:56:42;94465.66;;;30.72;30.25
12795;BME280;6461;42.666;23.296;2022-08-01T10:59:09;94470.28;;;29.93;31.13
12795;BME280;6461;42.666;23.296;2022-08-01T11:01:36;94453.97;;;29.73;31.94
12795;BME280;6461;42.666;23.296;2022-08-01T11:04:04;94457.28;;;29.84;31.77
12795;BME280;6461;42.666;23.296;2022-08-01T11:06:48;94455.38;;;30.04;31.56
12795;BME280;6461;42.666;23.296;2022-08-01T11:09:20;94452.28;;;30.45;31.54
12795;BME280;6461;42.666;23.296;2022-08-01T11:12:01;94453.06;;;30.81;31.06
12795;BME280;6461;42.666;23.296;2022-08-01T11:14:30;94449.75;;;30.74;30.81
12795;BME280;6461;42.666;23.296;2022-08-01T11:16:56;94442.81;;;31.09;29.80
12795;BME280;6461;42.666;23.296;2022-08-01T11:22:26;94459.84;;;31.09;29.97
12795;BME280;6461;42.666;23.296;2022-08-01T11:24:55;94444.31;;;30.74;30.09
12795;BME280;6461;42.666;23.296;2022-08-01T11:27:27;94434.91;;;30.98;30.36
12795;BME280;6461;42.666;23.296;2022-08-01T11:32:45;94445.84;;;30.75;31.17
12795;BME280;6461;42.666;23.296;2022-08-01T11:35:12;94448.81;;;31.16;30.78
12795;BME280;6461;42.666;23.296;2022-08-01T11:37:40;94442.72;;;31.12;30.53
12795;BME280;6461;42.666;23.296;2022-08-01T11:40:16;94443.16;;;30.75;30.82
12795;BME280;6461;42.666;23.296;2022-08-01T11:42:43;94449.50;;;30.84;30.75
12795;BME280;6461;42.666;23.296;2022-08-01T11:45:10;94441.69;;;31.06;30.33
12795;BME280;6461;42.666;23.296;2022-08-01T11:47:43;94436.16;;;30.93;30.66
12795;BME280;6461;42.666;23.296;2022-08-01T11:52:58;94444.41;;;31.38;30.76
12795;BME280;6461;42.666;23.296;2022-08-01T11:55:24;94443.09;;;31.46;30.78
12795;BME280;6461;42.666;23.296;2022-08-01T11:57:57;94432.00;;;31.86;29.80
12795;BME280;6461;42.666;23.296;2022-08-01T12:00:24;94428.53;;;32.01;28.74
12795;BME280;6461;42.666;23.296;2022-08-01T12:02:56;94439.06;;;31.99;29.08
12795;BME280;6461;42.666;23.296;2022-08-01T12:05:23;94427.19;;;32.22;29.47
12795;BME280;6461;42.666;23.296;2022-08-01T12:07:51;94425.59;;;31.63;29.85
12795;BME280;6461;42.666;23.296;2022-08-01T12:10:20;94429.94;;;31.61;29.67
12795;BME280;6461;42.666;23.296;2022-08-01T12:12:48;94437.53;;;31.82;29.59
12795;BME280;6461;42.666;23.296;2022-08-01T12:15:15;94431.44;;;31.78;29.41
12795;BME280;6461;42.666;23.296;2022-08-01T12:17:42;94424.44;;;32.09;29.08
12795;BME280;6461;42.666;23.296;2022-08-01T12:20:12;94423.63;;;32.54;28.50
12795;BME280;6461;42.666;23.296;2022-08-01T12:22:39;94432.97;;;32.90;28.39
12795;BME280;6461;42.666;23.296;2022-08-01T12:25:06;94434.59;;;32.75;28.00
12795;BME280;6461;42.666;23.296;2022-08-01T12:27:35;94432.06;;;33.22;27.34
12795;BME280;6461;42.666;23.296;2022-08-01T12:30:03;94434.19;;;33.27;27.58
12795;BME280;6461;42.666;23.296;2022-08-01T12:32:31;94427.66;;;33.62;26.88
12795;BME280;6461;42.666;23.296;2022-08-01T12:35:00;94429.56;;;33.74;26.73
12795;BME280;6461;42.666;23.296;2022-08-01T12:37:27;94426.47;;;33.51;27.42
12795;BME280;6461;42.666;23.296;2022-08-01T12:39:53;94432.56;;;32.92;27.48
12795;BME280;6461;42.666;23.296;2022-08-01T12:42:20;94427.47;;;32.40;28.32
12795;BME280;6461;42.666;23.296;2022-08-01T12:44:50;94423.06;;;32.84;28.20
12795;BME280;6461;42.666;23.296;2022-08-01T12:47:17;94436.28;;;33.10;28.16
12795;BME280;6461;42.666;23.296;2022-08-01T12:49:44;94431.03;;;32.78;27.81
12795;BME280;6461;42.666;23.296;2022-08-01T12:52:11;94428.25;;;33.19;27.70
12795;BME280;6461;42.666;23.296;2022-08-01T12:57:23;94424.88;;;33.15;27.15
12795;BME280;6461;42.666;23.296;2022-08-01T12:59:53;94412.44;;;32.77;27.62
12795;BME280;6461;42.666;23.296;2022-08-01T13:02:31;94418.78;;;33.24;27.54
12795;BME280;6461;42.666;23.296;2022-08-01T13:04:58;94422.44;;;33.55;26.90
12795;BME280;6461;42.666;23.296;2022-08-01T13:07:34;94408.81;;;33.55;26.47
12795;BME280;6461;42.666;23.296;2022-08-01T13:10:00;94414.94;;;33.81;26.62
12795;BME280;6461;42.666;23.296;2022-08-01T13:12:27;94415.75;;;33.69;27.06
12795;BME280;6461;42.666;23.296;2022-08-01T13:14:55;94412.84;;;33.38;27.20
12795;BME280;6461;42.666;23.296;2022-08-01T13:17:31;94411.69;;;33.14;27.70
12795;BME280;6461;42.666;23.296;2022-08-01T13:19:57;94416.59;;;33.19;27.31